Time;durP1;ratioP1;P1;durP2;ratioP2;P2;SDS_P1;SDS_P2;PMS_P1;PMS_P2;Temp;Humidity;BMP_temperature;BMP_pressure;BME280_temperature;BME280_humidity;BME280_pressure;Samples;Min_cycle;Max_cycle;Signal;HPM_P1;HPM_P2
2024/03/26 00:02:18;;;;;;;18.38;10.95;;;22.50;99.90;;;;;;5052979;28;20025;-42
2024/03/26 00:04:44;;;;;;;18.00;10.45;;;22.40;99.90;;;;;;5052908;28;20075;-42
2024/03/26 00:07:10;;;;;;;18.17;10.93;;;22.40;99.90;;;;;;5052906;28;20104;-41
2024/03/26 00:09:36;;;;;;;16.05;10.07;;;22.40;99.90;;;;;;5052944;28;20025;-42
2024/03/26 00:12:02;;;;;;;14.52;9.02;;;22.40;99.90;;;;;;5052936;28;20112;-41
2024/03/26 00:14:28;;;;;;;14.40;9.55;;;22.40;99.90;;;;;;5052962;28;20021;-41
2024/03/26 00:16:53;;;;;;;19.75;10.20;;;22.40;99.90;;;;;;5052768;28;20128;-42
2024/03/26 00:19:19;;;;;;;16.70;9.90;;;22.40;99.90;;;;;;5052841;28;20025;-43
2024/03/26 00:21:45;;;;;;;14.70;8.75;;;22.40;99.90;;;;;;5052970;28;20056;-42
2024/03/26 00:24:11;;;;;;;15.80;10.15;;;22.40;99.90;;;;;;5053014;28;20460;-43
2024/03/26 00:26:37;;;;;;;15.55;9.15;;;22.40;99.90;;;;;;5052759;28;20020;-43
2024/03/26 00:29:03;;;;;;;14.20;9.05;;;22.40;99.90;;;;;;5052608;28;20556;-42
2024/03/26 00:31:33;;;;;;;13.95;8.85;;;22.30;99.90;;;;;;5052622;28;20052;-42
2024/03/26 00:33:59;;;;;;;17.38;9.57;;;22.30;99.90;;;;;;5052925;28;20096;-42
2024/03/26 00:36:25;;;;;;;15.60;8.20;;;22.30;99.90;;;;;;5034779;28;20025;-42
2024/03/26 00:38:51;;;;;;;14.63;9.00;;;22.30;99.90;;;;;;5052552;28;20040;-42
2024/03/26 00:41:17;;;;;;;12.95;8.57;;;22.30;99.90;;;;;;5034783;28;20166;-42
2024/03/26 00:43:43;;;;;;;12.43;7.80;;;22.30;99.90;;;;;;5052427;28;20042;-42
2024/03/26 00:46:09;;;;;;;12.43;8.27;;;22.30;99.90;;;;;;5052525;28;20484;-42
2024/03/26 00:48:34;;;;;;;12.80;8.40;;;22.30;99.90;;;;;;5052696;28;20370;-41
2024/03/26 00:51:00;;;;;;;15.00;8.93;;;22.30;99.90;;;;;;5052573;28;20036;-42
2024/03/26 00:53:26;;;;;;;10.90;8.30;;;22.30;99.90;;;;;;5052656;28;20118;-42
2024/03/26 00:55:52;;;;;;;11.98;8.13;;;22.30;99.90;;;;;;5034600;28;20025;-42
2024/03/26 00:58:18;;;;;;;12.68;8.50;;;22.30;99.90;;;;;;5052478;28;20432;-43
2024/03/26 01:00:44;;;;;;;13.00;8.13;;;22.30;99.90;;;;;;5054706;28;20108;-42
2024/03/26 01:03:09;;;;;;;11.30;8.15;;;22.30;99.90;;;;;;5056218;28;20021;-43
2024/03/26 01:05:35;;;;;;;12.05;7.25;;;22.30;99.90;;;;;;5056304;28;20532;-42
2024/03/26 01:08:01;;;;;;;13.88;8.02;;;22.30;99.90;;;;;;5056087;28;20063;-42
2024/03/26 01:10:27;;;;;;;12.18;7.70;;;22.30;99.90;;;;;;5056228;28;20025;-43
2024/03/26 01:12:53;;;;;;;11.85;7.10;;;22.30;99.90;;;;;;5056113;28;20020;-42
2024/03/26 01:15:19;;;;;;;10.65;6.88;;;22.30;99.90;;;;;;5038126;28;20057;-44
2024/03/26 01:17:45;;;;;;;14.20;7.65;;;22.30;99.90;;;;;;5056007;28;20107;-42
2024/03/26 01:20:12;;;;;;;10.65;6.50;;;22.30;99.90;;;;;;5038218;28;20039;-42
2024/03/26 01:22:39;;;;;;;9.13;5.77;;;22.30;99.90;;;;;;5055992;28;20037;-43
2024/03/26 01:25:07;;;;;;;11.45;7.88;;;22.30;99.90;;;;;;5055876;28;20052;-42
2024/03/26 01:27:34;;;;;;;11.10;6.68;;;22.30;99.90;;;;;;5055991;28;20385;-41
2024/03/26 01:30:00;;;;;;;10.82;6.82;;;22.30;99.90;;;;;;5055948;28;20033;-42
2024/03/26 01:32:25;;;;;;;12.00;7.20;;;22.20;99.90;;;;;;5055897;28;20051;-42
2024/03/26 01:34:52;;;;;;;11.20;6.45;;;22.30;99.90;;;;;;5055882;28;20389;-43
2024/03/26 01:37:17;;;;;;;9.60;5.93;;;22.20;99.90;;;;;;5055709;28;20044;-42
2024/03/26 01:39:43;;;;;;;10.05;6.80;;;22.20;99.90;;;;;;5055362;28;20113;-42
2024/03/26 01:42:09;;;;;;;7.55;5.85;;;22.20;99.90;;;;;;5055490;28;20667;-43
2024/03/26 01:44:35;;;;;;;10.48;6.68;;;22.20;99.90;;;;;;5055710;28;20049;-42
2024/03/26 01:47:01;;;;;;;9.45;6.15;;;22.20;99.90;;;;;;5055579;28;20476;-42
2024/03/26 01:49:29;;;;;;;10.98;5.72;;;22.20;99.90;;;;;;5037842;28;20098;-42
2024/03/26 01:51:55;;;;;;;8.65;5.53;;;22.20;99.90;;;;;;5055615;28;20021;-41
2024/03/26 01:54:22;;;;;;;7.70;5.35;;;22.20;99.90;;;;;;5055286;28;20025;-42
2024/03/26 01:56:47;;;;;;;9.43;5.13;;;22.20;99.90;;;;;;5055187;28;20107;-42
2024/03/26 01:59:14;;;;;;;10.00;5.53;;;22.20;99.90;;;;;;5055204;28;20104;-42
2024/03/26 02:01:39;;;;;;;7.47;5.30;;;22.20;99.90;;;;;;5055718;28;20481;-42
2024/03/26 02:04:05;;;;;;;8.38;5.30;;;22.20;99.90;;;;;;5037385;28;20032;-42
2024/03/26 02:06:31;;;;;;;8.98;5.53;;;22.20;99.90;;;;;;5055064;28;20100;-42
2024/03/26 02:09:00;;;;;;;9.40;5.53;;;22.20;99.90;;;;;;5055197;28;20033;-42
2024/03/26 02:11:26;;;;;;;7.57;5.28;;;22.10;99.90;;;;;;5054904;28;20051;-43
2024/03/26 02:13:52;;;;;;;7.70;4.88;;;22.10;99.90;;;;;;5037342;28;20017;-43
2024/03/26 02:16:18;;;;;;;6.20;4.38;;;22.10;99.90;;;;;;5054844;28;20037;-43
2024/03/26 02:18:43;;;;;;;7.55;5.22;;;22.10;99.90;;;;;;5054906;28;20029;-42
2024/03/26 02:21:09;;;;;;;8.93;5.22;;;22.10;99.90;;;;;;5037112;28;20040;-42
2024/03/26 02:23:36;;;;;;;8.02;4.28;;;22.10;99.90;;;;;;5054796;28;20041;-43
2024/03/26 02:26:01;;;;;;;6.55;4.70;;;22.10;99.90;;;;;;5054900;28;20021;-42
2024/03/26 02:28:27;;;;;;;8.65;5.38;;;22.10;99.90;;;;;;5054671;28;20484;-43
2024/03/26 02:30:53;;;;;;;9.85;4.85;;;22.10;99.90;;;;;;5054806;28;20044;-42
2024/03/26 02:33:19;;;;;;;5.78;4.18;;;22.10;99.90;;;;;;5054556;28;20025;-42
2024/03/26 02:35:44;;;;;;;8.50;4.78;;;22.10;99.90;;;;;;5054505;28;20579;-42
2024/03/26 02:38:10;;;;;;;8.13;4.65;;;22.10;99.90;;;;;;5054569;28;20393;-42
2024/03/26 02:40:36;;;;;;;7.03;4.38;;;22.10;99.90;;;;;;5054149;28;20132;-43
2024/03/26 02:43:02;;;;;;;8.60;4.00;;;22.10;99.90;;;;;;5054593;28;20017;-44
2024/03/26 02:45:29;;;;;;;5.35;4.40;;;22.10;99.90;;;;;;5054490;28;20562;-43
2024/03/26 02:47:54;;;;;;;7.28;4.50;;;22.10;99.90;;;;;;5054338;28;20021;-43
2024/03/26 02:50:20;;;;;;;6.53;3.75;;;22.10;99.90;;;;;;5054318;28;20029;-43
2024/03/26 02:52:46;;;;;;;6.97;4.00;;;22.00;99.90;;;;;;5054372;28;20434;-43
2024/03/26 02:55:12;;;;;;;4.95;3.83;;;22.00;99.90;;;;;;5054383;28;20029;-43
2024/03/26 02:57:37;;;;;;;7.88;3.65;;;22.00;99.90;;;;;;5054251;28;20466;-43
2024/03/26 03:02:36;;;;;;;5.43;3.47;;;22.00;99.90;;;;;;5071313;28;20090;-53
2024/03/26 03:05:02;;;;;;;5.35;3.55;;;22.00;99.90;;;;;;5074078;28;20028;-53
2024/03/26 03:07:28;;;;;;;6.90;3.75;;;22.00;99.90;;;;;;5055879;28;20024;-54
2024/03/26 03:09:54;;;;;;;6.45;3.28;;;22.00;99.90;;;;;;5074125;28;20162;-54
2024/03/26 03:12:20;;;;;;;6.25;3.72;;;22.00;99.90;;;;;;5073856;28;20032;-54
2024/03/26 03:14:45;;;;;;;8.27;3.40;;;22.00;99.90;;;;;;5073713;28;20069;-53
2024/03/26 03:17:11;;;;;;;6.55;3.83;;;22.00;99.90;;;;;;5056079;28;20051;-53
2024/03/26 03:19:37;;;;;;;5.82;3.17;;;22.00;99.90;;;;;;5073479;28;20025;-53
2024/03/26 03:22:03;;;;;;;7.50;3.50;;;22.00;99.90;;;;;;5073240;28;20031;-53
2024/03/26 03:24:28;;;;;;;5.22;3.17;;;22.00;99.90;;;;;;5073135;28;20026;-54
2024/03/26 03:26:54;;;;;;;6.55;2.92;;;22.00;99.90;;;;;;5073463;28;20039;-52
2024/03/26 03:29:20;;;;;;;7.80;3.75;;;22.00;99.90;;;;;;5073451;28;20056;-52
2024/03/26 03:31:46;;;;;;;5.00;2.80;;;22.00;99.90;;;;;;5045896;28;20024;-53
2024/03/26 03:34:11;;;;;;;5.68;3.08;;;22.00;99.90;;;;;;5063055;28;20055;-54
2024/03/26 03:36:37;;;;;;;6.28;3.08;;;22.00;99.90;;;;;;5061772;28;20025;-54
2024/03/26 03:39:04;;;;;;;6.35;3.28;;;22.00;99.90;;;;;;5068062;28;20028;-53
2024/03/26 03:41:30;;;;;;;6.05;2.90;;;21.90;99.90;;;;;;5058520;28;20050;-54
2024/03/26 03:43:56;;;;;;;10.60;3.83;;;22.00;99.90;;;;;;5050233;28;20025;-53
2024/03/26 03:46:22;;;;;;;8.00;2.85;;;22.00;99.90;;;;;;5066568;28;20078;-53
2024/03/26 03:48:48;;;;;;;6.20;2.83;;;22.00;99.90;;;;;;5060423;28;20401;-53
2024/03/26 03:51:13;;;;;;;5.03;2.88;;;22.00;99.90;;;;;;5069678;28;20127;-54
2024/03/26 03:53:39;;;;;;;5.07;2.75;;;21.90;99.90;;;;;;5070209;28;20027;-54
2024/03/26 03:56:05;;;;;;;5.28;3.22;;;21.90;99.90;;;;;;5067617;28;20393;-53
2024/03/26 03:58:31;;;;;;;6.13;3.05;;;22.00;99.90;;;;;;5067253;28;20028;-53
2024/03/26 04:00:57;;;;;;;8.70;3.72;;;21.90;99.90;;;;;;5075494;23;20506;-42
2024/03/26 04:03:22;;;;;;;4.10;2.50;;;22.00;99.90;;;;;;5073791;28;20059;-42
2024/03/26 04:05:48;;;;;;;7.28;2.55;;;22.00;99.90;;;;;;5065514;28;20025;-42
2024/03/26 04:08:14;;;;;;;4.28;2.63;;;21.90;99.90;;;;;;5081815;28;20028;-42
2024/03/26 04:10:41;;;;;;;4.53;2.50;;;22.00;99.90;;;;;;5087114;28;20467;-42
2024/03/26 04:13:06;;;;;;;6.40;2.65;;;22.00;99.90;;;;;;5082334;28;20031;-41
2024/03/26 04:15:32;;;;;;;4.75;2.67;;;21.90;99.90;;;;;;5080462;28;20468;-41
2024/03/26 04:17:58;;;;;;;4.28;2.50;;;22.00;99.90;;;;;;5078148;28;20016;-41
2024/03/26 04:20:24;;;;;;;6.72;2.55;;;22.00;99.90;;;;;;5072157;28;20037;-42
2024/03/26 04:22:49;;;;;;;3.80;2.45;;;22.00;99.90;;;;;;5073911;28;20016;-42
2024/03/26 04:25:16;;;;;;;4.30;2.28;;;22.00;99.90;;;;;;5063836;28;20539;-40
2024/03/26 04:27:42;;;;;;;6.28;2.60;;;22.00;99.90;;;;;;5068788;28;20490;-41
2024/03/26 04:30:12;;;;;;;5.05;2.40;;;22.00;99.90;;;;;;5057486;28;20025;-43
2024/03/26 04:32:38;;;;;;;5.28;2.65;;;22.00;99.90;;;;;;5060208;28;20017;-42
2024/03/26 04:35:04;;;;;;;3.72;2.10;;;22.00;99.90;;;;;;5055572;28;20412;-42
2024/03/26 04:37:30;;;;;;;4.00;2.33;;;22.00;99.90;;;;;;5077986;28;20564;-41
2024/03/26 04:39:56;;;;;;;5.20;2.22;;;22.00;99.90;;;;;;5074510;28;20111;-42
2024/03/26 04:42:22;;;;;;;4.10;2.38;;;22.00;99.90;;;;;;5085448;28;20035;-42
2024/03/26 04:44:48;;;;;;;4.53;2.13;;;22.00;99.90;;;;;;5090816;28;20016;-42
2024/03/26 04:47:14;;;;;;;3.13;2.15;;;22.00;99.90;;;;;;5087195;28;20032;-42
2024/03/26 04:49:40;;;;;;;4.30;2.30;;;22.00;99.90;;;;;;5084295;28;20077;-41
2024/03/26 04:52:06;;;;;;;5.05;2.63;;;22.00;99.90;;;;;;5081694;28;20051;-42
2024/03/26 04:54:31;;;;;;;2.63;1.70;;;22.00;99.90;;;;;;5075657;28;20024;-41
2024/03/26 04:56:57;;;;;;;4.25;1.77;;;22.00;99.90;;;;;;5074998;28;20028;-42
2024/03/26 04:59:23;;;;;;;2.83;1.95;;;22.00;99.90;;;;;;5067098;28;20106;-42
2024/03/26 05:01:49;;;;;;;3.67;1.95;;;22.00;99.90;;;;;;5073751;28;20060;-42
2024/03/26 05:04:15;;;;;;;3.83;1.92;;;21.90;99.90;;;;;;5069330;28;20025;-42
2024/03/26 05:06:40;;;;;;;4.18;1.85;;;21.90;99.90;;;;;;5062676;28;20406;-43
2024/03/26 05:09:09;;;;;;;3.60;1.60;;;21.90;99.90;;;;;;5065243;28;20033;-42
2024/03/26 05:11:36;;;;;;;2.63;1.38;;;21.90;99.90;;;;;;5064681;28;20091;-43
2024/03/26 05:14:02;;;;;;;4.88;2.08;;;21.90;99.90;;;;;;5058458;28;20048;-43
2024/03/26 05:16:27;;;;;;;4.28;2.10;;;21.90;99.90;;;;;;5074548;28;20048;-42
2024/03/26 05:18:53;;;;;;;4.50;2.22;;;21.90;99.90;;;;;;5075868;28;20090;-42
2024/03/26 05:21:19;;;;;;;3.55;1.75;;;21.90;99.90;;;;;;5074464;28;20485;-42
2024/03/26 05:23:45;;;;;;;4.10;1.88;;;21.90;99.90;;;;;;5075556;28;20115;-42
2024/03/26 05:26:10;;;;;;;2.80;1.50;;;21.90;99.90;;;;;;5075734;28;20123;-42
2024/03/26 05:28:36;;;;;;;3.38;1.75;;;21.90;99.90;;;;;;5075592;28;20078;-42
2024/03/26 05:31:18;;;;;;;2.55;1.80;;;21.90;99.90;;;;;;5075443;28;20038;-42
2024/03/26 05:33:47;;;;;;;3.15;1.60;;;21.90;99.90;;;;;;5075459;28;20103;-43
2024/03/26 05:36:14;;;;;;;2.33;1.23;;;21.90;99.90;;;;;;5075586;28;20384;-42
2024/03/26 05:38:41;;;;;;;4.07;2.10;;;21.90;99.90;;;;;;5075492;28;20021;-42
2024/03/26 05:41:08;;;;;;;3.80;1.98;;;21.90;99.90;;;;;;5074145;28;20051;-42
2024/03/26 05:43:34;;;;;;;2.60;1.50;;;21.90;99.90;;;;;;5072594;28;20021;-43
2024/03/26 05:45:59;;;;;;;3.47;1.52;;;21.90;99.90;;;;;;5063743;28;20132;-42
2024/03/26 05:48:26;;;;;;;2.50;1.52;;;21.90;99.90;;;;;;5055551;28;20029;-43
2024/03/26 05:50:52;;;;;;;4.40;1.90;;;21.80;99.90;;;;;;5054142;28;20071;-42
2024/03/26 05:53:19;;;;;;;3.10;1.85;;;21.80;99.90;;;;;;5055457;28;20025;-42
2024/03/26 05:55:45;;;;;;;4.18;1.83;;;21.80;99.90;;;;;;5056315;28;20044;-42
2024/03/26 05:58:11;;;;;;;3.22;1.17;;;21.80;99.90;;;;;;5054394;28;20377;-43
2024/03/26 06:00:36;;;;;;;3.47;1.60;;;21.80;99.90;;;;;;5054948;28;20529;-42
2024/03/26 06:03:03;;;;;;;3.15;1.48;;;21.80;99.90;;;;;;5055772;28;20109;-42
2024/03/26 06:05:28;;;;;;;3.88;1.30;;;21.80;99.90;;;;;;5069925;28;20028;-42
2024/03/26 06:07:54;;;;;;;3.17;1.23;;;21.80;99.90;;;;;;5053615;28;20496;-42
2024/03/26 06:10:20;;;;;;;3.85;1.38;;;21.80;99.90;;;;;;5055374;28;20511;-42
2024/03/26 06:12:47;;;;;;;4.65;1.90;;;21.80;99.90;;;;;;5055129;28;20035;-42
2024/03/26 06:15:13;;;;;;;3.38;1.40;;;21.80;99.90;;;;;;5053921;28;20017;-43
2024/03/26 06:17:39;;;;;;;4.18;2.00;;;21.80;99.90;;;;;;5055045;28;20025;-42
2024/03/26 06:20:06;;;;;;;3.85;1.42;;;21.80;99.90;;;;;;5037036;28;20492;-43
2024/03/26 06:22:32;;;;;;;4.57;1.13;;;21.80;99.90;;;;;;5053621;28;20040;-42
2024/03/26 06:24:58;;;;;;;2.47;1.17;;;21.80;99.90;;;;;;5053631;28;20404;-43
2024/03/26 06:27:24;;;;;;;2.33;1.30;;;21.80;99.90;;;;;;5054704;28;20029;-42
2024/03/26 06:29:50;;;;;;;3.45;1.25;;;21.80;99.90;;;;;;5055080;28;20469;-42
2024/03/26 06:32:15;;;;;;;2.83;1.40;;;21.70;99.90;;;;;;5054742;28;20032;-42
2024/03/26 06:34:41;;;;;;;3.72;1.23;;;21.70;99.90;;;;;;5053489;28;20025;-42
2024/03/26 06:37:07;;;;;;;4.20;1.10;;;21.70;99.90;;;;;;5054900;28;20032;-43
2024/03/26 06:39:33;;;;;;;4.68;1.23;;;21.70;99.90;;;;;;5054582;28;20021;-42
2024/03/26 06:41:59;;;;;;;4.20;1.40;;;21.70;99.90;;;;;;5054395;28;20036;-43
2024/03/26 06:44:25;;;;;;;4.57;1.20;;;21.70;99.90;;;;;;5054456;28;20078;-42
2024/03/26 06:46:51;;;;;;;5.07;1.33;;;21.70;99.90;;;;;;5069826;28;20116;-43
2024/03/26 06:49:17;;;;;;;3.15;0.98;;;21.70;99.90;;;;;;5054638;28;20024;-42
2024/03/26 06:51:43;;;;;;;2.00;1.35;;;21.70;99.90;;;;;;5054572;28;20026;-42
2024/03/26 06:54:09;;;;;;;2.20;1.30;;;21.70;99.90;;;;;;5054305;28;20029;-41
2024/03/26 06:56:35;;;;;;;1.35;0.82;;;21.70;99.90;;;;;;5054139;28;20021;-42
2024/03/26 06:59:01;;;;;;;1.98;1.10;;;21.60;99.90;;;;;;5053312;28;20059;-42
2024/03/26 07:01:27;;;;;;;3.28;1.63;;;21.60;99.90;;;;;;5054106;28;20087;-42
2024/03/26 07:03:53;;;;;;;3.15;1.35;;;21.60;99.90;;;;;;5054225;28;20109;-43
2024/03/26 07:06:19;;;;;;;2.60;0.82;;;21.60;99.90;;;;;;5054286;28;20021;-45
2024/03/26 07:08:45;;;;;;;2.85;1.10;;;21.60;99.90;;;;;;5053946;28;20032;-42
2024/03/26 07:11:10;;;;;;;1.52;1.17;;;21.60;99.90;;;;;;5053790;28;20150;-42
2024/03/26 07:13:36;;;;;;;2.28;1.00;;;21.60;99.90;;;;;;5053992;28;20025;-42
2024/03/26 07:16:04;;;;;;;1.90;1.20;;;21.60;99.90;;;;;;5053825;28;20032;-42
2024/03/26 07:18:30;;;;;;;2.25;1.00;;;21.60;99.90;;;;;;5054021;28;20384;-42
2024/03/26 07:20:58;;;;;;;4.60;1.17;;;21.60;99.90;;;;;;5053722;28;20044;-42
2024/03/26 07:23:26;;;;;;;1.77;1.25;;;21.60;99.90;;;;;;5053762;28;20079;-41
2024/03/26 07:25:52;;;;;;;1.85;1.10;;;21.60;99.90;;;;;;5053690;28;20025;-42
2024/03/26 07:28:18;;;;;;;2.17;1.20;;;21.50;99.90;;;;;;5053663;28;20100;-42
2024/03/26 07:30:44;;;;;;;1.50;0.95;;;21.50;99.90;;;;;;5053943;28;20025;-43
2024/03/26 07:33:10;;;;;;;2.28;0.80;;;21.50;99.90;;;;;;5053377;28;20366;-42
2024/03/26 07:35:35;;;;;;;2.42;0.80;;;21.50;99.90;;;;;;5053566;28;20023;-43
2024/03/26 07:38:02;;;;;;;2.72;1.02;;;21.50;99.90;;;;;;5053917;28;20087;-42
2024/03/26 07:40:28;;;;;;;2.35;0.93;;;21.50;99.90;;;;;;5052246;28;20037;-42
2024/03/26 07:42:55;;;;;;;1.63;1.02;;;21.50;99.90;;;;;;5053434;28;20043;-42
2024/03/26 07:45:21;;;;;;;1.73;0.80;;;21.50;99.90;;;;;;5053457;28;20023;-42
2024/03/26 07:47:47;;;;;;;1.98;0.90;;;21.50;99.90;;;;;;5053396;28;20021;-42
2024/03/26 07:50:13;;;;;;;2.85;1.08;;;21.40;99.90;;;;;;5053359;28;20435;-43
2024/03/26 07:52:39;;;;;;;1.98;0.70;;;21.40;99.90;;;;;;5053538;28;20445;-42
2024/03/26 07:55:05;;;;;;;1.77;1.00;;;21.40;99.90;;;;;;5052074;28;20366;-43
2024/03/26 07:57:31;;;;;;;1.25;0.80;;;21.40;99.90;;;;;;5053698;28;20074;-42
2024/03/26 07:59:57;;;;;;;2.05;1.02;;;21.40;99.90;;;;;;5053380;28;20487;-42
2024/03/26 08:02:23;;;;;;;2.42;0.95;;;21.40;99.90;;;;;;5053213;28;20182;-42
2024/03/26 08:04:49;;;;;;;0.77;0.70;;;21.40;99.90;;;;;;5052296;28;20049;-42
2024/03/26 08:07:16;;;;;;;2.00;0.82;;;21.30;99.90;;;;;;5053186;28;20094;-42
2024/03/26 08:09:42;;;;;;;1.38;0.60;;;21.40;99.90;;;;;;5052727;28;20017;-43
2024/03/26 08:12:08;;;;;;;1.77;1.08;;;21.30;99.90;;;;;;5053206;28;20048;-41
2024/03/26 08:14:36;;;;;;;1.85;0.80;;;21.30;99.90;;;;;;5053506;28;20025;-43
2024/03/26 08:17:03;;;;;;;0.98;0.60;;;21.30;99.90;;;;;;5053154;28;20465;-42
2024/03/26 08:19:29;;;;;;;1.27;0.80;;;21.30;99.90;;;;;;5053094;28;20025;-42
2024/03/26 08:21:55;;;;;;;1.55;0.80;;;21.30;99.90;;;;;;5052940;28;20439;-43
2024/03/26 08:24:21;;;;;;;2.58;0.70;;;21.30;99.90;;;;;;5052864;28;20135;-42
2024/03/26 08:26:47;;;;;;;2.22;1.08;;;21.30;99.90;;;;;;5052953;28;20055;-43
2024/03/26 08:29:13;;;;;;;1.17;0.70;;;21.30;99.90;;;;;;5053037;28;20025;-42
2024/03/26 08:31:39;;;;;;;1.58;0.57;;;21.30;99.90;;;;;;5052892;28;20048;-43
2024/03/26 08:34:05;;;;;;;1.52;0.98;;;21.30;99.90;;;;;;5052879;28;20043;-43
2024/03/26 08:36:30;;;;;;;2.80;1.30;;;21.30;99.90;;;;;;5052909;28;20548;-42
2024/03/26 08:38:56;;;;;;;1.45;0.98;;;21.30;99.90;;;;;;5052792;28;20037;-42
2024/03/26 08:41:22;;;;;;;2.72;0.93;;;21.30;99.90;;;;;;5052781;28;20128;-43
2024/03/26 08:43:48;;;;;;;1.00;0.70;;;21.30;99.90;;;;;;5052697;28;20036;-42
2024/03/26 08:46:14;;;;;;;1.52;0.85;;;21.30;99.90;;;;;;5052743;28;20025;-42
2024/03/26 08:48:40;;;;;;;5.80;0.98;;;21.30;99.90;;;;;;5052784;28;20469;-42
2024/03/26 08:51:05;;;;;;;1.77;1.13;;;21.30;99.90;;;;;;5052578;28;20055;-42
2024/03/26 08:53:31;;;;;;;1.30;0.93;;;21.30;99.90;;;;;;5052721;28;20014;-42
2024/03/26 08:55:57;;;;;;;1.95;1.23;;;21.30;99.90;;;;;;5052625;28;20584;-42
2024/03/26 08:58:23;;;;;;;2.45;1.10;;;21.30;99.90;;;;;;5052633;28;20096;-42
2024/03/26 09:00:49;;;;;;;2.88;1.30;;;21.30;99.90;;;;;;5052434;28;20044;-42
2024/03/26 09:03:15;;;;;;;2.35;1.33;;;21.30;99.90;;;;;;5052771;28;20018;-42
2024/03/26 09:05:41;;;;;;;1.42;1.00;;;21.30;99.90;;;;;;5052399;28;20025;-41
2024/03/26 09:08:07;;;;;;;2.38;1.30;;;21.30;99.90;;;;;;5052701;28;20029;-41
2024/03/26 09:10:33;;;;;;;3.03;1.30;;;21.30;99.90;;;;;;5051359;28;20052;-41
2024/03/26 09:12:59;;;;;;;1.92;1.23;;;21.30;99.90;;;;;;5051306;28;20422;-42
2024/03/26 09:15:25;;;;;;;3.70;1.02;;;21.20;99.90;;;;;;5052673;28;20028;-42
2024/03/26 09:17:52;;;;;;;1.80;1.20;;;21.30;99.90;;;;;;5052552;28;20021;-42
2024/03/26 09:20:18;;;;;;;2.67;1.30;;;21.30;99.90;;;;;;5052265;28;20079;-42
2024/03/26 09:22:46;;;;;;;1.40;0.90;;;21.30;99.90;;;;;;5055783;28;20107;-42
2024/03/26 09:25:12;;;;;;;2.78;1.95;;;21.20;99.90;;;;;;5056005;28;20524;-42
2024/03/26 09:27:38;;;;;;;3.25;1.90;;;21.30;99.90;;;;;;5056271;28;20056;-42
2024/03/26 09:30:05;;;;;;;3.42;2.30;;;21.20;99.90;;;;;;5055871;28;20425;-41
2024/03/26 09:32:30;;;;;;;4.10;2.75;;;21.20;99.90;;;;;;5055762;28;20029;-42
2024/03/26 09:34:56;;;;;;;4.13;3.13;;;21.20;99.90;;;;;;5055727;28;20052;-44
2024/03/26 09:37:22;;;;;;;6.22;3.72;;;21.20;99.90;;;;;;5055978;28;20053;-41
2024/03/26 09:39:48;;;;;;;6.53;4.18;;;21.20;99.90;;;;;;5054451;28;20355;-42
2024/03/26 09:42:18;;;;;;;6.63;4.20;;;21.20;99.90;;;;;;5054526;28;20025;-42
2024/03/26 09:44:44;;;;;;;7.95;5.25;;;21.20;99.90;;;;;;5055602;28;20080;-42
2024/03/26 09:47:11;;;;;;;5.95;4.10;;;21.20;99.90;;;;;;5055640;28;20025;-41
2024/03/26 09:49:38;;;;;;;7.60;5.05;;;21.20;99.90;;;;;;5054091;28;20025;-42
2024/03/26 09:52:10;;;;;;;6.57;4.53;;;21.30;99.90;;;;;;5055595;28;20017;-41
2024/03/26 09:54:38;;;;;;;5.50;3.88;;;21.30;99.90;;;;;;5055625;28;20473;-42
2024/03/26 09:57:04;;;;;;;5.75;4.30;;;21.30;99.90;;;;;;5055324;28;20028;-42
2024/03/26 09:59:30;;;;;;;8.23;5.13;;;21.30;99.90;;;;;;5055486;28;20017;-42
2024/03/26 10:02:06;;;;;;;7.32;5.18;;;21.30;99.90;;;;;;5053692;28;20481;-43
2024/03/26 10:04:32;;;;;;;6.30;4.13;;;21.30;99.90;;;;;;5054157;28;20109;-42
2024/03/26 10:06:58;;;;;;;9.13;5.65;;;21.40;99.90;;;;;;5055003;28;20094;-42
2024/03/26 10:09:24;;;;;;;7.20;4.72;;;21.40;99.90;;;;;;5055218;28;20027;-41
2024/03/26 10:11:50;;;;;;;6.60;4.43;;;21.40;99.90;;;;;;5055279;28;20104;-41
2024/03/26 10:14:16;;;;;;;7.20;4.75;;;21.40;99.90;;;;;;5054225;28;20603;-41
2024/03/26 10:16:43;;;;;;;6.22;4.95;;;21.40;99.90;;;;;;5055085;28;20043;-42
2024/03/26 10:19:09;;;;;;;5.40;3.95;;;21.40;99.90;;;;;;5070393;28;20029;-42
2024/03/26 10:21:35;;;;;;;5.85;4.25;;;21.40;99.90;;;;;;5055028;28;20047;-42
2024/03/26 10:24:01;;;;;;;6.85;4.18;;;21.40;99.90;;;;;;5054883;28;20475;-42
2024/03/26 10:26:28;;;;;;;6.82;4.40;;;21.40;99.90;;;;;;5054794;28;20033;-42
2024/03/26 10:28:53;;;;;;;6.13;4.30;;;21.40;99.90;;;;;;5054686;28;20036;-42
2024/03/26 10:31:19;;;;;;;5.35;4.00;;;21.40;99.90;;;;;;5054655;28;20270;-42
2024/03/26 10:33:47;;;;;;;5.78;4.05;;;21.50;99.90;;;;;;5053428;28;20102;-43
2024/03/26 10:36:16;;;;;;;4.40;3.40;;;21.40;99.90;;;;;;5053607;28;20496;-42
2024/03/26 10:38:43;;;;;;;6.93;4.00;;;21.40;99.90;;;;;;5054555;28;20036;-43
2024/03/26 10:41:35;;;;;;;5.32;3.58;;;21.40;99.90;;;;;;5054587;28;20033;-42
2024/03/26 10:44:02;;;;;;;5.70;3.60;;;21.40;99.90;;;;;;5054735;28;20032;-42
2024/03/26 10:46:30;;;;;;;4.68;3.40;;;21.50;99.90;;;;;;5055053;28;20031;-42
2024/03/26 10:48:58;;;;;;;6.00;3.10;;;21.50;99.90;;;;;;5053138;28;20025;-42
2024/03/26 10:51:29;;;;;;;4.35;2.95;;;21.40;99.90;;;;;;5054320;28;20021;-42
2024/03/26 10:53:59;;;;;;;5.95;3.83;;;21.40;99.90;;;;;;5054377;28;20024;-48
2024/03/26 10:56:32;;;;;;;5.85;3.10;;;21.50;99.90;;;;;;5054233;28;20124;-43
2024/03/26 10:58:58;;;;;;;4.35;3.15;;;21.50;99.90;;;;;;5054230;28;20029;-43
2024/03/26 11:01:26;;;;;;;4.05;3.20;;;21.50;99.90;;;;;;5053965;28;20049;-43
2024/03/26 11:03:52;;;;;;;4.43;3.03;;;21.60;99.90;;;;;;5054766;28;20017;-42
2024/03/26 11:06:21;;;;;;;4.65;3.28;;;21.60;99.90;;;;;;5054256;28;20366;-42
2024/03/26 11:08:48;;;;;;;5.20;3.13;;;21.60;99.90;;;;;;5052652;28;20049;-42
2024/03/26 11:11:18;;;;;;;4.70;3.03;;;21.60;99.90;;;;;;5053968;28;20025;-42
2024/03/26 11:13:44;;;;;;;6.07;3.38;;;21.70;99.90;;;;;;5053845;28;20036;-43
2024/03/26 11:16:37;;;;;;;4.18;3.30;;;21.70;99.90;;;;;;5054089;28;20068;-43
2024/03/26 11:19:24;;;;;;;3.67;2.83;;;21.70;99.90;;;;;;5053658;28;20104;-43
2024/03/26 11:21:51;;;;;;;3.08;2.22;;;21.70;99.90;;;;;;5053649;28;20094;-43
2024/03/26 11:24:21;;;;;;;5.45;2.67;;;21.80;99.90;;;;;;5052796;28;20436;-44
2024/03/26 11:26:47;;;;;;;4.47;2.95;;;21.80;99.90;;;;;;5053837;28;20413;-43
2024/03/26 11:29:13;;;;;;;5.63;2.78;;;21.80;99.90;;;;;;5053773;28;20017;-43
2024/03/26 11:31:41;;;;;;;7.47;2.97;;;21.80;99.90;;;;;;5053475;28;20170;-43
2024/03/26 11:34:07;;;;;;;;;;;21.80;99.90;;;;;;5054460;28;20425;-44
2024/03/26 11:36:37;;;;;;;4.32;2.45;;;21.90;99.90;;;;;;5052446;28;19952;-43
2024/03/26 11:39:03;;;;;;;4.43;2.78;;;21.90;99.90;;;;;;5053663;28;20354;-43
2024/03/26 11:41:31;;;;;;;6.45;3.00;;;21.90;99.90;;;;;;5052484;28;20059;-43
2024/03/26 11:43:59;;;;;;;6.55;2.70;;;21.90;99.90;;;;;;5052821;28;20025;-43
2024/03/26 11:46:25;;;;;;;3.38;2.35;;;21.90;99.90;;;;;;5053521;28;20025;-42
2024/03/26 11:49:03;;;;;;;3.72;2.60;;;21.90;99.90;;;;;;5053294;28;20040;-43
2024/03/26 11:51:30;;;;;;;5.95;2.65;;;22.00;99.90;;;;;;5053284;28;20385;-42
2024/03/26 11:53:56;;;;;;;6.05;2.15;;;22.00;99.90;;;;;;5053263;28;20031;-42
2024/03/26 11:56:23;;;;;;;3.83;2.45;;;22.00;99.90;;;;;;5053139;28;20033;-42
2024/03/26 11:58:50;;;;;;;3.95;2.88;;;22.00;99.90;;;;;;5053796;28;20036;-43
2024/03/26 12:01:20;;;;;;;3.53;2.40;;;22.00;99.90;;;;;;5053038;28;20044;-42
2024/03/26 12:04:03;;;;;;;3.78;2.70;;;22.00;99.90;;;;;;5052090;28;20388;-44
2024/03/26 12:06:30;;;;;;;4.80;2.20;;;22.00;99.90;;;;;;5053150;28;20087;-42
2024/03/26 12:09:00;;;;;;;4.00;2.38;;;22.10;99.90;;;;;;5053087;28;20445;-43
2024/03/26 12:11:26;;;;;;;5.65;2.38;;;22.10;99.90;;;;;;5053043;28;20036;-42
2024/03/26 12:13:52;;;;;;;4.22;2.28;;;22.10;99.90;;;;;;5053011;28;20021;-42
2024/03/26 12:16:26;;;;;;;2.67;2.20;;;22.10;99.90;;;;;;5052889;28;20025;-42
2024/03/26 12:18:52;;;;;;;4.72;2.47;;;22.10;99.90;;;;;;5053007;28;20017;-42
2024/03/26 12:21:18;;;;;;;4.78;2.60;;;22.10;99.90;;;;;;5051641;28;20064;-42
2024/03/26 12:23:52;;;;;;;3.78;2.63;;;22.20;99.90;;;;;;5052963;28;20056;-42
2024/03/26 12:26:19;;;;;;;7.97;2.20;;;22.20;99.90;;;;;;5052821;28;20025;-42
2024/03/26 12:28:46;;;;;;;6.80;2.35;;;22.20;99.90;;;;;;5053012;28;20072;-43
2024/03/26 12:31:11;;;;;;;5.00;2.30;;;22.20;99.90;;;;;;5052947;28;20033;-43
2024/03/26 12:33:37;;;;;;;3.38;2.35;;;22.20;99.90;;;;;;5052973;28;20366;-42
2024/03/26 12:36:04;;;;;;;5.13;2.05;;;22.20;99.90;;;;;;5051463;28;20064;-41
2024/03/26 12:38:33;;;;;;;5.65;2.38;;;22.20;99.90;;;;;;5052682;28;20086;-42
2024/03/26 12:40:59;;;;;;;4.97;2.40;;;22.20;99.90;;;;;;5052886;28;20056;-42
2024/03/26 12:43:25;;;;;;;3.40;2.58;;;22.20;99.90;;;;;;5051679;28;20131;-43
2024/03/26 12:45:51;;;;;;;4.95;2.30;;;22.30;99.90;;;;;;5052710;28;20048;-42